Time;durP1;ratioP1;P1;durP2;ratioP2;P2;SDS_P1;SDS_P2;PMS_P1;PMS_P2;Temp;Humidity;BMP_temperature;BMP_pressure;BME280_temperature;BME280_humidity;BME280_pressure;Samples;Min_cycle;Max_cycle;Signal;HPM_P1;HPM_P2
2022/01/15 00:01:42;;;;;;;89.70;33.85;;;;;;;5.62;100.00;103335.28;5096777;28;20494;-73
2022/01/15 00:04:08;;;;;;;93.93;35.17;;;;;;;5.75;100.00;103328.34;5067247;28;20123;-72
2022/01/15 00:06:34;;;;;;;92.88;34.58;;;;;;;5.62;100.00;103316.22;5099756;28;20058;-73
2022/01/15 00:09:00;;;;;;;80.90;33.35;;;;;;;5.78;100.00;103314.38;5103321;28;20441;-73
2022/01/15 00:11:25;;;;;;;88.28;34.42;;;;;;;5.81;100.00;103317.53;5097548;28;20439;-73
2022/01/15 00:13:57;;;;;;;72.43;31.55;;;;;;;5.93;100.00;103315.19;5103324;28;20114;-72
2022/01/15 00:16:44;;;;;;;84.57;34.95;;;;;;;6.11;100.00;103312.06;5089111;28;20065;-73
2022/01/15 00:19:12;;;;;;;82.30;33.70;;;;;;;6.07;100.00;103305.34;5088748;28;20123;-73
2022/01/15 00:21:38;;;;;;;71.03;31.80;;;;;;;5.96;100.00;103309.38;5095610;28;20066;-72
2022/01/15 00:24:04;;;;;;;84.40;33.30;;;;;;;5.99;100.00;103302.72;5084374;28;20375;-72
2022/01/15 00:26:29;;;;;;;83.55;35.38;;;;;;;5.67;100.00;103289.31;5086527;28;20039;-72
2022/01/15 00:28:55;;;;;;;76.65;32.75;;;;;;;5.88;100.00;103293.97;5103850;28;20031;-73
2022/01/15 00:31:21;;;;;;;85.45;34.58;;;;;;;5.67;100.00;103296.63;5101010;28;20040;-72
2022/01/15 00:33:47;;;;;;;85.05;34.08;;;;;;;5.60;100.00;103292.97;5076186;28;20039;-73
2022/01/15 00:36:12;;;;;;;72.18;32.15;;;;;;;5.72;100.00;103286.00;5106594;28;20486;-73
2022/01/15 00:38:38;;;;;;;89.45;32.92;;;;;;;5.48;100.00;103279.84;5105585;28;20115;-73
2022/01/15 00:41:03;;;;;;;107.00;33.13;;;;;;;5.37;100.00;103277.59;5098968;28;20063;-73
2022/01/15 00:43:28;;;;;;;80.93;31.73;;;;;;;5.62;100.00;103280.84;5104933;28;20114;-73
2022/01/15 00:45:57;;;;;;;74.15;31.88;;;;;;;5.66;100.00;103278.63;5104786;28;20056;-72
2022/01/15 00:48:26;;;;;;;75.22;29.75;;;;;;;5.86;100.00;103276.13;5092413;28;20186;-72
2022/01/15 00:50:52;;;;;;;76.85;28.83;;;;;;;5.68;100.00;103266.50;5078862;28;20043;-74
2022/01/15 00:53:18;;;;;;;67.30;29.27;;;;;;;5.69;100.00;103262.75;5095156;28;20031;-73
2022/01/15 00:55:44;;;;;;;76.78;31.25;;;;;;;5.59;100.00;103259.47;5085880;28;20035;-72
2022/01/15 00:58:09;;;;;;;67.90;26.65;;;;;;;5.75;100.00;103263.84;5081483;28;20211;-74
2022/01/15 01:00:36;;;;;;;71.20;26.13;;;;;;;5.36;100.00;103267.72;5084258;28;20147;-73
2022/01/15 01:03:01;;;;;;;82.70;27.92;;;;;;;4.93;100.00;103262.06;5093967;28;20092;-73
2022/01/15 01:05:27;;;;;;;83.85;30.20;;;;;;;4.77;100.00;103266.66;5100089;28;20035;-73
2022/01/15 01:07:53;;;;;;;62.03;26.70;;;;;;;5.36;100.00;103269.59;5103072;28;20028;-73
2022/01/15 01:21:17;;;;;;;71.70;25.40;;;;;;;5.21;100.00;103248.69;5100154;28;20109;-73
2022/01/15 01:23:42;;;;;;;80.90;27.17;;;;;;;5.44;100.00;103245.03;5100966;28;20038;-73
2022/01/15 01:26:23;;;;;;;63.38;25.08;;;;;;;5.43;100.00;103249.63;5100157;28;20027;-73
2022/01/15 01:29:00;;;;;;;70.68;25.20;;;;;;;5.40;100.00;103249.19;5105308;28;20138;-73
2022/01/15 01:31:36;;;;;;;69.85;24.63;;;;;;;5.40;100.00;103241.84;5087452;28;20031;-73
2022/01/15 01:34:08;;;;;;;83.05;24.58;;;;;;;5.30;100.00;103246.75;5098407;28;20077;-73
2022/01/15 01:36:47;;;;;;;87.55;27.77;;;;;;;5.22;100.00;103242.22;5104267;28;20828;-74
2022/01/15 01:39:18;;;;;;;64.65;24.85;;;;;;;5.27;100.00;103230.78;5099888;28;20139;-73
2022/01/15 01:41:54;;;;;;;63.10;24.08;;;;;;;5.42;100.00;103225.34;5083375;28;20024;-72
2022/01/15 01:44:24;;;;;;;96.88;28.42;;;;;;;5.32;100.00;103233.78;5076647;28;20055;-73
2022/01/15 01:47:00;;;;;;;77.40;26.17;;;;;;;5.62;100.00;103231.88;5084461;28;20423;-73
2022/01/15 01:49:26;;;;;;;73.78;26.35;;;;;;;5.48;100.00;103230.88;5080598;28;20020;-72
2022/01/15 01:51:53;;;;;;;75.45;27.23;;;;;;;5.50;100.00;103226.06;5083322;28;20167;-72
2022/01/15 01:54:19;;;;;;;86.80;28.40;;;;;;;5.31;100.00;103219.34;5046675;28;20351;-73
2022/01/15 01:56:47;;;;;;;80.32;25.48;;;;;;;5.21;100.00;103223.38;5083786;28;20031;-72
2022/01/15 01:59:14;;;;;;;71.55;25.65;;;;;;;5.23;100.00;103219.44;5081335;28;20028;-73
2022/01/15 02:01:40;;;;;;;72.18;25.30;;;;;;;5.22;100.00;103216.91;5074649;28;20478;-73
2022/01/15 02:04:05;;;;;;;64.40;23.15;;;;;;;4.90;100.00;103216.22;5080171;28;20034;-73
2022/01/15 02:06:31;;;;;;;75.80;23.92;;;;;;;5.04;100.00;103211.84;5083131;28;20034;-73
2022/01/15 02:08:58;;;;;;;64.18;23.58;;;;;;;5.06;100.00;103204.34;5100859;28;20043;-72
2022/01/15 02:11:25;;;;;;;70.22;24.63;;;;;;;4.86;100.00;103204.88;5080954;28;20475;-73
2022/01/15 02:13:51;;;;;;;56.08;22.20;;;;;;;4.76;100.00;103209.75;5083463;28;20103;-73
2022/01/15 02:16:17;;;;;;;62.85;24.17;;;;;;;5.05;100.00;103214.38;5078465;28;20421;-73
2022/01/15 02:18:42;;;;;;;71.95;26.27;;;;;;;4.57;100.00;103208.41;5085721;28;20212;-73
2022/01/15 02:23:46;;;;;;;65.65;24.38;;;;;;;4.82;100.00;103200.88;5104372;28;20072;-73
2022/01/15 02:26:16;;;;;;;76.30;24.45;;;;;;;4.71;100.00;103196.72;5102505;28;20023;-73
2022/01/15 02:28:45;;;;;;;58.67;22.77;;;;;;;4.70;100.00;103192.28;5104559;28;20074;-73
2022/01/15 02:31:13;;;;;;;60.50;23.02;;;;;;;4.69;100.00;103198.78;5079427;28;20788;-72
2022/01/15 02:33:39;;;;;;;66.38;23.45;;;;;;;4.71;100.00;103182.28;5081895;28;20478;-74
2022/01/15 02:36:10;;;;;;;57.63;23.13;;;;;;;4.84;100.00;103178.91;5082367;28;20035;-73
2022/01/15 02:38:36;;;;;;;79.90;24.25;;;;;;;4.47;100.00;103173.34;5103775;28;20108;-74
2022/01/15 02:41:02;;;;;;;68.63;24.83;;;;;;;4.34;100.00;103179.38;5101078;28;20040;-73
2022/01/15 02:43:32;;;;;;;56.67;23.45;;;;;;;4.55;100.00;103170.53;5105632;28;20401;-72
2022/01/15 02:46:08;;;;;;;88.25;25.55;;;;;;;4.67;100.00;103170.09;5092833;28;20040;-73
2022/01/15 02:48:34;;;;;;;57.42;23.77;;;;;;;4.77;100.00;103157.06;5081622;28;20028;-73
2022/01/15 02:51:00;;;;;;;59.17;22.15;;;;;;;4.88;100.00;103147.63;5081309;28;20062;-72
2022/01/15 02:53:26;;;;;;;66.10;23.58;;;;;;;4.72;100.00;103144.06;5082895;28;20115;-73
2022/01/15 02:55:53;;;;;;;60.60;23.88;;;;;;;4.75;100.00;103143.66;5049825;28;20115;-73
2022/01/15 02:58:21;;;;;;;56.67;23.20;;;;;;;4.76;100.00;103150.78;5093182;28;20031;-73
2022/01/15 03:00:50;;;;;;;58.47;23.00;;;;;;;4.53;100.00;103152.75;5095095;28;20528;-72
2022/01/15 03:03:17;;;;;;;73.10;24.25;;;;;;;4.53;100.00;103142.72;5081016;28;20295;-73
2022/01/15 03:05:44;;;;;;;62.08;23.50;;;;;;;4.68;100.00;103153.59;5061371;28;20435;-73
2022/01/15 03:08:09;;;;;;;51.33;21.73;;;;;;;4.62;100.00;103137.19;5064625;28;20086;-74
2022/01/15 03:10:34;;;;;;;70.55;23.05;;;;;;;4.48;100.00;103137.00;5065368;28;20028;-73
2022/01/15 03:13:08;;;;;;;70.55;24.30;;;;;;;4.52;100.00;103132.88;5083370;28;20394;-72
2022/01/15 03:15:34;;;;;;;70.93;24.00;;;;;;;4.33;100.00;103126.13;5080311;28;20024;-73
2022/01/15 03:18:01;;;;;;;61.65;22.30;;;;;;;4.57;100.00;103133.16;5071562;28;20085;-73
2022/01/15 03:20:26;;;;;;;73.78;22.40;;;;;;;4.71;100.00;103133.38;5076388;28;20451;-74
2022/01/15 03:22:51;;;;;;;54.45;22.25;;;;;;;4.71;100.00;103131.50;5088801;28;20130;-72
2022/01/15 03:25:17;;;;;;;80.95;23.65;;;;;;;4.56;100.00;103134.19;5099647;28;20035;-73
2022/01/15 03:27:43;;;;;;;64.63;24.15;;;;;;;4.56;100.00;103127.94;5103111;28;20035;-73
2022/01/15 03:30:10;;;;;;;90.22;26.33;;;;;;;4.52;100.00;103116.56;5097726;28;20054;-74
2022/01/15 03:32:37;;;;;;;68.60;23.75;;;;;;;4.66;100.00;103119.50;5079700;28;20101;-74
2022/01/15 03:35:04;;;;;;;58.88;22.48;;;;;;;4.46;100.00;103117.34;5070027;28;20035;-74
2022/01/15 03:37:29;;;;;;;67.88;24.08;;;;;;;4.56;100.00;103107.03;5084154;28;20027;-73
2022/01/15 03:39:55;;;;;;;60.30;21.25;;;;;;;4.70;100.00;103113.50;5101621;28;20042;-73
2022/01/15 03:42:20;;;;;;;48.42;19.73;;;;;;;4.50;100.00;103109.66;5098226;28;20128;-74
2022/01/15 03:44:47;;;;;;;51.15;18.90;;;;;;;4.37;100.00;103118.44;5087885;28;20440;-74
2022/01/15 03:47:14;;;;;;;49.30;19.13;;;;;;;4.18;100.00;103117.06;5101207;28;20035;-74
2022/01/15 03:49:40;;;;;;;59.20;21.77;;;;;;;4.04;100.00;103114.13;5104524;28;20035;-74
2022/01/15 03:52:07;;;;;;;61.95;20.30;;;;;;;4.31;100.00;103116.44;5104201;28;20265;-74
2022/01/15 03:54:33;;;;;;;51.17;20.20;;;;;;;4.33;100.00;103112.53;5102331;28;21027;-74
2022/01/15 03:57:00;;;;;;;57.28;20.10;;;;;;;4.49;100.00;103107.94;5087945;28;20044;-74
2022/01/15 03:59:25;;;;;;;48.28;18.92;;;;;;;4.50;100.00;103102.34;5085259;28;20723;-74
2022/01/15 04:01:51;;;;;;;73.03;19.63;;;;;;;3.94;100.00;103099.97;5087208;28;20457;-74
2022/01/15 04:04:17;;;;;;;53.60;18.38;;;;;;;4.14;100.00;103094.88;5096458;28;20031;-74
2022/01/15 04:06:43;;;;;;;51.53;17.92;;;;;;;4.35;100.00;103090.63;5102689;28;20028;-74
2022/01/15 04:09:09;;;;;;;57.10;18.58;;;;;;;4.38;100.00;103087.53;5082765;28;20088;-74
2022/01/15 04:11:35;;;;;;;48.92;18.45;;;;;;;4.18;100.00;103082.63;5094842;28;20061;-74
2022/01/15 04:14:01;;;;;;;62.22;19.73;;;;;;;4.29;100.00;103080.50;5086911;28;20031;-75
2022/01/15 04:16:28;;;;;;;64.88;19.92;;;;;;;4.50;100.00;103069.75;5093635;28;20413;-74
2022/01/15 04:18:54;;;;;;;61.75;19.95;;;;;;;4.38;100.00;103072.06;5100462;28;20035;-75
2022/01/15 04:21:20;;;;;;;51.72;18.58;;;;;;;4.56;100.00;103070.88;5085251;28;20035;-75
2022/01/15 04:23:46;;;;;;;68.32;18.65;;;;;;;4.47;100.00;103080.97;5068896;28;20044;-75
2022/01/15 04:26:11;;;;;;;51.55;17.48;;;;;;;4.48;100.00;103071.81;5084877;28;20107;-74
2022/01/15 04:28:36;;;;;;;42.65;16.90;;;;;;;4.26;100.00;103070.84;5087020;28;20132;-74
2022/01/15 04:31:06;;;;;;;38.25;15.30;;;;;;;4.07;100.00;103080.38;5083025;28;20591;-75
2022/01/15 04:33:36;;;;;;;40.05;14.88;;;;;;;4.02;100.00;103078.19;5081053;28;20032;-75
2022/01/15 04:36:05;;;;;;;38.03;14.77;;;;;;;4.25;100.00;103066.44;5084867;28;20044;-75
2022/01/15 04:38:34;;;;;;;50.85;17.30;;;;;;;4.04;100.00;103070.69;5083490;28;20034;-75
2022/01/15 04:41:00;;;;;;;50.95;17.15;;;;;;;4.09;100.00;103070.16;5097777;28;20104;-75
2022/01/15 04:43:25;;;;;;;44.58;16.10;;;;;;;4.07;100.00;103063.22;5105566;28;20211;-75
2022/01/15 04:45:52;;;;;;;44.20;16.48;;;;;;;3.95;100.00;103060.97;5085264;28;20031;-75
2022/01/15 04:48:17;;;;;;;42.40;16.17;;;;;;;4.07;100.00;103060.50;5088599;28;20080;-75
2022/01/15 04:50:43;;;;;;;46.85;16.63;;;;;;;4.03;100.00;103057.31;5090414;28;20020;-74
2022/01/15 04:53:09;;;;;;;49.58;16.77;;;;;;;4.00;100.00;103058.53;5089582;28;20509;-75
2022/01/15 04:55:36;;;;;;;64.70;17.98;;;;;;;3.93;100.00;103044.00;5078928;28;20057;-74
2022/01/15 04:58:02;;;;;;;50.90;18.52;;;;;;;3.82;100.00;103049.84;5104360;28;20050;-75
2022/01/15 05:00:27;;;;;;;49.05;17.48;;;;;;;3.92;100.00;103050.47;5104580;28;20525;-74
2022/01/15 05:02:52;;;;;;;47.15;17.58;;;;;;;4.00;100.00;103044.09;5107612;28;20028;-74
2022/01/15 05:05:18;;;;;;;52.63;16.00;;;;;;;3.91;100.00;103035.22;5085236;28;20081;-75
2022/01/15 05:07:44;;;;;;;44.22;17.73;;;;;;;4.02;100.00;103039.34;5047859;28;20078;-74
2022/01/15 05:10:13;;;;;;;51.92;18.35;;;;;;;4.26;100.00;103034.69;5065274;28;20382;-75
2022/01/15 05:12:44;;;;;;;62.35;19.25;;;;;;;4.20;100.00;103037.13;5072811;28;20026;-74
2022/01/15 05:15:12;;;;;;;74.93;17.27;;;;;;;3.86;100.00;103019.47;5103026;28;20033;-74
2022/01/15 05:17:38;;;;;;;41.15;15.38;;;;;;;4.00;100.00;103015.13;5081850;28;20027;-75
2022/01/15 05:20:04;;;;;;;82.25;17.20;;;;;;;3.99;100.00;103007.97;5102240;28;20100;-75
2022/01/15 05:22:31;;;;;;;50.25;18.08;;;;;;;3.94;100.00;102996.84;5068928;28;20027;-74
2022/01/15 05:24:57;;;;;;;54.47;17.92;;;;;;;3.85;100.00;102995.22;5070307;28;20077;-74
2022/01/15 05:27:22;;;;;;;66.03;18.30;;;;;;;3.85;100.00;102992.50;5104855;28;20449;-74
2022/01/15 05:29:47;;;;;;;43.50;18.42;;;;;;;3.95;100.00;102984.09;5090957;28;20036;-74
2022/01/15 05:32:13;;;;;;;128.50;23.08;;;;;;;3.77;100.00;102984.44;5080405;28;20035;-74
2022/01/15 05:34:39;;;;;;;82.78;19.95;;;;;;;3.74;100.00;102987.53;5084855;28;20319;-74
2022/01/15 05:37:04;;;;;;;54.03;17.48;;;;;;;3.67;100.00;102988.28;5082918;28;20028;-74
2022/01/15 05:39:30;;;;;;;62.60;18.48;;;;;;;3.63;100.00;102975.25;5091556;28;20737;-76
2022/01/15 05:41:56;;;;;;;44.00;16.10;;;;;;;3.68;100.00;102972.84;5103769;28;20028;-74
2022/01/15 05:44:21;;;;;;;72.10;19.60;;;;;;;3.60;100.00;102976.47;5099835;28;20031;-73
2022/01/15 05:46:46;;;;;;;100.15;19.85;;;;;;;3.53;100.00;102974.69;5098975;28;20032;-74
2022/01/15 05:49:13;;;;;;;101.43;20.25;;;;;;;3.61;100.00;102974.63;5061191;28;20070;-74
2022/01/15 05:51:39;;;;;;;70.72;19.42;;;;;;;3.48;100.00;102969.81;5082420;28;20035;-74
2022/01/15 05:54:10;;;;;;;90.28;19.25;;;;;;;3.57;100.00;102962.44;5104325;28;20035;-76
2022/01/15 05:56:36;;;;;;;59.65;18.30;;;;;;;3.40;100.00;102959.84;5092070;28;20286;-74
2022/01/15 05:59:01;;;;;;;56.35;19.48;;;;;;;3.50;100.00;102963.16;5084000;28;20036;-74
2022/01/15 06:01:26;;;;;;;74.90;18.40;;;;;;;3.45;100.00;102952.00;5070266;28;20066;-75
2022/01/15 06:03:52;;;;;;;70.75;20.35;;;;;;;3.74;100.00;102953.13;5089633;28;20052;-75
2022/01/15 06:06:18;;;;;;;87.68;20.77;;;;;;;3.75;100.00;102945.81;5082571;28;20430;-74
2022/01/15 06:08:43;;;;;;;69.60;20.92;;;;;;;3.68;100.00;102951.97;5081079;28;20023;-75
2022/01/15 06:11:10;;;;;;;100.20;21.33;;;;;;;3.84;100.00;102944.72;5065506;28;20028;-74
2022/01/15 06:13:35;;;;;;;132.90;23.05;;;;;;;3.64;100.00;102947.09;5063120;28;20279;-77
2022/01/15 06:16:01;;;;;;;57.40;18.33;;;;;;;3.82;100.00;102939.47;5049740;28;20040;-74
2022/01/15 06:18:26;;;;;;;69.18;18.30;;;;;;;3.86;100.00;102948.06;5081019;28;20047;-74
2022/01/15 06:20:51;;;;;;;58.45;17.02;;;;;;;3.75;100.00;102940.38;5082277;28;20048;-74
2022/01/15 06:23:18;;;;;;;161.70;21.98;;;;;;;3.50;100.00;102938.75;5065478;28;20496;-75
2022/01/15 06:25:44;;;;;;;60.17;16.90;;;;;;;3.58;100.00;102945.13;5049726;28;20031;-75
2022/01/15 06:28:09;;;;;;;48.25;16.77;;;;;;;3.58;100.00;102937.00;5066504;28;20328;-73
2022/01/15 06:30:35;;;;;;;74.15;18.60;;;;;;;3.61;100.00;102947.50;5081019;28;20691;-74
2022/01/15 06:33:00;;;;;;;121.80;21.75;;;;;;;3.59;100.00;102941.38;5091088;28;20028;-74
2022/01/15 06:35:25;;;;;;;103.85;20.98;;;;;;;3.50;100.00;102951.47;5086081;28;20068;-73
2022/01/15 06:37:52;;;;;;;80.25;19.60;;;;;;;3.75;100.00;102953.97;5104247;28;20061;-76
2022/01/15 06:40:19;;;;;;;53.85;18.38;;;;;;;3.81;100.00;102953.22;5064050;28;20066;-74
2022/01/15 06:42:44;;;;;;;45.17;18.35;;;;;;;3.89;100.00;102947.72;5065257;28;20047;-74
2022/01/15 06:45:10;;;;;;;63.25;20.13;;;;;;;4.10;100.00;102938.84;5075830;28;20035;-75
2022/01/15 06:47:38;;;;;;;59.75;20.05;;;;;;;4.18;100.00;102943.31;5088612;28;20088;-75
2022/01/15 06:50:06;;;;;;;145.27;23.92;;;;;;;3.73;100.00;102939.75;5085455;28;20383;-74
2022/01/15 06:52:38;;;;;;;71.20;19.20;;;;;;;3.44;100.00;102953.06;5092495;28;20519;-74
2022/01/15 06:55:08;;;;;;;53.00;18.70;;;;;;;3.71;100.00;102939.09;5103499;28;20574;-75
2022/01/15 06:57:34;;;;;;;69.43;18.60;;;;;;;3.63;100.00;102938.13;5096670;28;20036;-74
2022/01/15 07:00:01;;;;;;;62.90;18.25;;;;;;;3.60;100.00;102949.34;5092703;28;20323;-74
2022/01/15 07:02:26;;;;;;;58.35;18.65;;;;;;;3.40;100.00;102953.59;5097945;28;20389;-74
2022/01/15 07:04:51;;;;;;;46.83;19.02;;;;;;;3.44;100.00;102941.34;5087355;28;20036;-75
2022/01/15 07:07:17;;;;;;;93.88;20.70;;;;;;;3.35;100.00;102946.00;5101433;28;20496;-74
2022/01/15 07:09:42;;;;;;;39.30;17.98;;;;;;;3.47;100.00;102949.94;5096785;28;20148;-75
2022/01/15 07:12:08;;;;;;;85.53;21.38;;;;;;;3.34;100.00;102952.44;5084624;28;20051;-75
2022/01/15 07:14:33;;;;;;;59.30;21.30;;;;;;;3.61;100.00;102950.19;5081198;28;20438;-75
2022/01/15 07:16:59;;;;;;;83.07;23.23;;;;;;;3.46;100.00;102945.56;5062455;28;20036;-75
2022/01/15 07:19:25;;;;;;;63.22;22.02;;;;;;;3.58;100.00;102950.56;5079731;28;20041;-72
2022/01/15 07:21:53;;;;;;;56.78;21.13;;;;;;;3.68;100.00;102943.84;5084771;28;20086;-72
2022/01/15 07:24:18;;;;;;;60.55;20.58;;;;;;;3.83;100.00;102943.84;5074705;28;20173;-72
2022/01/15 07:26:44;;;;;;;64.00;21.80;;;;;;;3.76;100.00;102939.38;5103856;28;20106;-71
2022/01/15 07:29:14;;;;;;;64.60;22.63;;;;;;;3.90;100.00;102943.94;5098697;28;20112;-71
2022/01/15 07:31:42;;;;;;;70.28;22.60;;;;;;;3.96;100.00;102934.25;5086974;28;20559;-71
2022/01/15 07:34:07;;;;;;;47.28;19.45;;;;;;;3.84;100.00;102928.44;5103964;28;20349;-71
2022/01/15 07:36:33;;;;;;;49.90;19.38;;;;;;;3.78;100.00;102934.59;5104938;28;20024;-71
2022/01/15 07:38:58;;;;;;;60.85;21.65;;;;;;;3.61;100.00;102929.34;5100775;28;20052;-71
2022/01/15 07:41:24;;;;;;;84.53;22.95;;;;;;;3.63;100.00;102927.28;5085500;28;20112;-71
2022/01/15 07:43:50;;;;;;;65.28;21.70;;;;;;;3.61;100.00;102931.22;5067949;28;20040;-72
2022/01/15 07:46:16;;;;;;;50.22;20.23;;;;;;;3.54;100.00;102931.06;5085536;28;20068;-71
2022/01/15 07:48:42;;;;;;;62.83;21.98;;;;;;;3.72;100.00;102919.06;5102287;28;20159;-70
2022/01/15 07:51:07;;;;;;;55.80;21.27;;;;;;;3.70;100.00;102926.53;5085410;28;20382;-70
2022/01/15 07:53:33;;;;;;;49.92;21.15;;;;;;;3.63;100.00;102913.72;5092202;28;20039;-71
2022/01/15 07:55:58;;;;;;;54.50;22.42;;;;;;;3.60;100.00;102922.22;5066489;28;20036;-71
2022/01/15 07:58:28;;;;;;;72.18;23.73;;;;;;;3.38;100.00;102909.53;5058757;28;20430;-71
2022/01/15 08:00:53;;;;;;;71.93;22.95;;;;;;;3.37;100.00;102919.53;5080311;28;20024;-70
2022/01/15 08:03:32;;;;;;;64.30;22.88;;;;;;;3.39;100.00;102917.47;5094828;28;20446;-72
2022/01/15 08:05:57;;;;;;;65.75;24.20;;;;;;;3.75;100.00;102919.50;5087615;28;20027;-70
2022/01/15 08:08:34;;;;;;;53.00;21.63;;;;;;;3.67;100.00;102919.59;5089039;28;20077;-71
2022/01/15 08:10:59;;;;;;;54.30;22.38;;;;;;;3.67;100.00;102911.47;5100880;28;20035;-71
2022/01/15 08:13:26;;;;;;;61.05;24.83;;;;;;;3.60;100.00;102921.38;5107385;28;20489;-72
2022/01/15 08:15:53;;;;;;;54.08;24.83;;;;;;;3.57;100.00;102905.47;5098822;28;20051;-71
2022/01/15 08:18:23;;;;;;;70.15;24.38;;;;;;;3.54;100.00;102903.94;5085092;28;20023;-70
2022/01/15 08:20:49;;;;;;;59.00;24.95;;;;;;;3.70;100.00;102896.69;5081675;28;20335;-71
2022/01/15 08:23:15;;;;;;;87.18;26.88;;;;;;;3.67;100.00;102896.03;5103148;28;20036;-70
2022/01/15 08:25:41;;;;;;;78.63;26.35;;;;;;;3.80;100.00;102894.53;5090690;28;20036;-70
2022/01/15 08:28:06;;;;;;;79.78;27.52;;;;;;;3.88;100.00;102893.63;5105668;27;20039;-72
2022/01/15 08:30:32;;;;;;;74.95;28.52;;;;;;;3.97;100.00;102895.22;5105400;28;20067;-72
2022/01/15 08:32:57;;;;;;;70.30;26.98;;;;;;;3.94;100.00;102893.72;5094393;28;20039;-73
2022/01/15 08:35:23;;;;;;;102.43;28.40;;;;;;;3.87;100.00;102895.50;5083022;28;20384;-71
2022/01/15 08:37:49;;;;;;;82.15;27.13;;;;;;;3.89;100.00;102889.84;5086996;28;20394;-71
2022/01/15 08:40:19;;;;;;;72.53;29.13;;;;;;;3.74;100.00;102889.84;5091727;28;20027;-71
2022/01/15 08:42:44;;;;;;;83.55;28.13;;;;;;;3.65;100.00;102881.81;5083134;28;20032;-72
2022/01/15 08:45:11;;;;;;;73.20;28.75;;;;;;;3.97;100.00;102887.91;5083494;28;20032;-71
2022/01/15 08:47:37;;;;;;;59.55;26.70;;;;;;;3.89;100.00;102888.00;5079233;28;20334;-71
2022/01/15 08:50:03;;;;;;;90.90;29.65;;;;;;;3.96;100.00;102891.66;5100473;28;20040;-71
2022/01/15 08:52:30;;;;;;;68.88;26.17;;;;;;;3.90;100.00;102891.56;5084679;28;20043;-70
2022/01/15 08:54:57;;;;;;;64.53;26.15;;;;;;;3.94;100.00;102901.84;5063706;28;20043;-72
2022/01/15 08:57:22;;;;;;;67.47;27.02;;;;;;;3.99;100.00;102893.16;5092099;28;20039;-71
2022/01/15 08:59:48;;;;;;;87.45;29.33;;;;;;;3.88;100.00;102891.75;5092940;28;20039;-72
2022/01/15 09:02:14;;;;;;;83.32;29.85;;;;;;;3.91;100.00;102895.97;5073139;28;20503;-72
2022/01/15 09:04:39;;;;;;;96.35;28.58;;;;;;;3.83;100.00;102889.59;5079242;28;20035;-72
2022/01/15 09:07:05;;;;;;;95.47;28.83;;;;;;;3.75;100.00;102896.97;5095154;28;20037;-72
2022/01/15 09:09:32;;;;;;;83.82;28.17;;;;;;;3.97;100.00;102900.66;5103963;28;20031;-72
2022/01/15 09:11:57;;;;;;;94.68;29.48;;;;;;;3.89;100.00;102893.44;5080845;28;20430;-72
2022/01/15 09:14:23;;;;;;;65.78;28.33;;;;;;;4.17;100.00;102900.91;5068208;28;20040;-71
2022/01/15 09:16:48;;;;;;;83.85;30.17;;;;;;;4.05;100.00;102887.81;5097207;28;20043;-73
2022/01/15 09:19:13;;;;;;;79.30;28.13;;;;;;;4.12;100.00;102892.50;5055803;28;20036;-72
2022/01/15 09:21:39;;;;;;;71.35;28.55;;;;;;;4.00;100.00;102892.09;5064183;28;20040;-73
2022/01/15 09:24:04;;;;;;;70.22;29.15;;;;;;;3.94;100.00;102885.56;5085185;28;20040;-71
2022/01/15 09:26:49;;;;;;;84.13;28.35;;;;;;;3.96;100.00;102886.22;5083299;28;20064;-71
2022/01/15 09:32:01;;;;;;;96.07;29.52;;;;;;;3.76;100.00;102887.81;5102583;28;20412;-72
2022/01/15 09:34:27;;;;;;;61.80;26.73;;;;;;;4.02;100.00;102887.34;5067396;28;20035;-72
2022/01/15 09:36:52;;;;;;;88.68;29.90;;;;;;;3.80;100.00;102886.41;5102551;28;20336;-71
2022/01/15 09:39:19;;;;;;;91.63;30.20;;;;;;;4.17;100.00;102901.75;5094368;28;20421;-71
2022/01/15 09:41:47;;;;;;;70.22;29.02;;;;;;;4.08;100.00;102902.03;5087916;28;20020;-72
2022/01/15 09:44:15;;;;;;;65.32;27.27;;;;;;;4.01;100.00;102901.94;5084958;28;20062;-71
2022/01/15 09:46:40;;;;;;;70.10;28.50;;;;;;;3.97;100.00;102895.22;5089326;28;20433;-71
2022/01/15 09:49:09;;;;;;;66.72;30.40;;;;;;;3.87;100.00;102895.50;5089789;28;20032;-73
2022/01/15 09:51:39;;;;;;;68.43;28.10;;;;;;;4.08;100.00;102891.19;5085941;28;20030;-72
2022/01/15 09:54:05;;;;;;;64.53;28.75;;;;;;;4.12;100.00;102879.75;5084646;28;20039;-72
2022/01/15 09:56:30;;;;;;;91.03;30.48;;;;;;;3.84;100.00;102882.31;5098643;28;20023;-71
2022/01/15 09:58:58;;;;;;;69.68;28.33;;;;;;;4.22;100.00;102887.59;5082892;28;20550;-71
2022/01/15 10:01:23;;;;;;;91.25;31.23;;;;;;;4.12;100.00;102884.34;5087209;28;20034;-72
2022/01/15 10:03:49;;;;;;;117.22;32.72;;;;;;;4.36;100.00;102891.31;5094002;28;20032;-71
2022/01/15 10:06:14;;;;;;;77.57;31.85;;;;;;;4.39;100.00;102889.09;5093474;28;20062;-71
2022/01/15 10:09:07;;;;;;;69.50;28.30;;;;;;;4.12;100.00;102884.34;5083877;28;20210;-70
2022/01/15 10:11:41;;;;;;;69.97;28.00;;;;;;;4.11;100.00;102886.19;5082117;28;20433;-70
2022/01/15 10:14:43;;;;;;;63.50;27.33;;;;;;;3.82;100.00;102873.47;5097221;28;20122;-72
2022/01/15 10:17:28;;;;;;;65.70;27.23;;;;;;;3.99;100.00;102872.28;5091280;28;20172;-71
2022/01/15 10:19:56;;;;;;;67.20;26.15;;;;;;;3.99;100.00;102874.16;5092261;28;20071;-70
2022/01/15 10:22:23;;;;;;;69.68;27.15;;;;;;;3.94;100.00;102861.16;5092091;28;20116;-71
2022/01/15 10:25:07;;;;;;;59.63;26.48;;;;;;;4.00;100.00;102871.25;5068566;28;20079;-72
2022/01/15 10:28:03;;;;;;;64.22;25.83;;;;;;;4.18;100.00;102880.84;5100966;28;20027;-71
2022/01/15 10:30:30;;;;;;;62.72;25.70;;;;;;;4.27;100.00;102874.31;5082876;28;20032;-72
2022/01/15 10:32:59;;;;;;;61.42;25.27;;;;;;;4.49;100.00;102882.50;5093314;28;20721;-71
2022/01/15 10:35:30;;;;;;;50.55;23.75;;;;;;;4.44;100.00;102874.91;5096298;28;20023;-72
2022/01/15 10:37:58;;;;;;;59.03;25.40;;;;;;;4.38;100.00;102870.25;5092379;28;20481;-72
2022/01/15 10:40:37;;;;;;;56.50;25.17;;;;;;;4.19;100.00;102869.81;5097936;28;20028;-72
2022/01/15 10:43:02;;;;;;;59.08;25.80;;;;;;;4.30;100.00;102879.34;5086926;28;20191;-71
2022/01/15 10:45:31;;;;;;;62.40;26.13;;;;;;;4.02;100.00;102877.34;5102597;28;20507;-71
2022/01/15 10:47:58;;;;;;;67.50;27.77;;;;;;;4.50;100.00;102867.88;5100530;28;20020;-71
2022/01/15 10:50:29;;;;;;;61.65;25.50;;;;;;;4.54;100.00;102861.03;5103295;28;20221;-72
2022/01/15 10:52:57;;;;;;;61.67;25.52;;;;;;;4.63;100.00;102854.44;5103540;28;20055;-72
2022/01/15 10:55:31;;;;;;;65.80;27.27;;;;;;;4.53;100.00;102856.66;5087566;28;20055;-71
2022/01/15 10:58:03;;;;;;;70.40;28.17;;;;;;;4.56;100.00;102856.25;5084802;28;20530;-71
2022/01/15 11:00:39;;;;;;;66.63;28.15;;;;;;;4.61;100.00;102853.81;5084328;28;20024;-70
2022/01/15 11:03:11;;;;;;;61.28;26.27;;;;;;;4.53;100.00;102853.94;5085769;28;20393;-72
2022/01/15 11:05:38;;;;;;;58.70;28.20;;;;;;;4.67;100.00;102846.75;5097154;28;20015;-71
2022/01/15 11:08:18;;;;;;;59.47;26.27;;;;;;;4.27;100.00;102843.59;5084577;28;20032;-71
2022/01/15 11:10:55;;;;;;;59.00;27.70;;;;;;;4.48;100.00;102849.06;5105795;28;20028;-70
2022/01/15 11:13:28;;;;;;;55.97;28.65;;;;;;;4.30;100.00;102841.34;5090839;28;20123;-72
2022/01/15 11:16:00;;;;;;;61.65;29.35;;;;;;;4.58;100.00;102843.31;5089267;28;20038;-70
2022/01/15 11:18:35;;;;;;;57.65;26.50;;;;;;;4.68;100.00;102843.84;5086655;28;20398;-71
2022/01/15 11:21:06;;;;;;;65.82;29.60;;;;;;;4.62;100.00;102844.59;5083495;28;20100;-72
2022/01/15 11:23:33;;;;;;;61.13;27.30;;;;;;;4.73;100.00;102838.66;5092559;28;20097;-71
2022/01/15 11:26:01;;;;;;;58.40;26.67;;;;;;;4.84;100.00;102828.28;5075380;28;20042;-72
2022/01/15 11:28:29;;;;;;;52.47;24.83;;;;;;;4.89;100.00;102825.84;5102797;28;20019;-71